Time;durP1;ratioP1;P1;durP2;ratioP2;P2;SDS_P1;SDS_P2;PMS_P1;PMS_P2;Temp;Humidity;BMP_temperature;BMP_pressure;BME280_temperature;BME280_humidity;BME280_pressure;Samples;Min_cycle;Max_cycle;Signal;HPM_P1;HPM_P2
2022/03/04 00:02:23;;;;;;;5.40;4.90;;;3.70;83.10;;;;;;5065281;28;20652;-68
2022/03/04 00:04:52;;;;;;;8.20;5.50;;;3.70;84.00;;;;;;5069351;28;20221;-67
2022/03/04 00:07:18;;;;;;;6.47;4.88;;;3.60;84.00;;;;;;5069874;28;20220;-68
2022/03/04 00:09:45;;;;;;;5.90;5.35;;;3.60;84.30;;;;;;5064315;28;20208;-68
2022/03/04 00:12:12;;;;;;;7.30;5.18;;;3.70;84.00;;;;;;5062752;28;20226;-68
2022/03/04 00:14:39;;;;;;;4.57;3.90;;;3.80;84.30;;;;;;5068432;28;20201;-68
2022/03/04 00:17:06;;;;;;;4.88;4.47;;;3.80;84.50;;;;;;5068144;28;20236;-68
2022/03/04 00:19:33;;;;;;;7.82;5.38;;;3.70;84.90;;;;;;5069863;28;20239;-68
2022/03/04 00:22:01;;;;;;;7.07;4.57;;;3.70;85.10;;;;;;5057421;28;20224;-68
2022/03/04 00:24:27;;;;;;;8.48;5.00;;;3.70;85.60;;;;;;5067406;28;20223;-68
2022/03/04 00:26:54;;;;;;;5.80;4.70;;;3.60;85.30;;;;;;5070118;28;20565;-67
2022/03/04 00:29:20;;;;;;;8.52;5.50;;;3.70;85.20;;;;;;5070086;28;20560;-68
2022/03/04 00:31:47;;;;;;;9.68;4.75;;;3.70;85.00;;;;;;5068338;28;20698;-68
2022/03/04 00:34:14;;;;;;;6.32;5.15;;;3.70;84.90;;;;;;5065490;28;20249;-68
2022/03/04 00:36:41;;;;;;;6.07;4.57;;;3.70;85.20;;;;;;5063032;28;20206;-69
2022/03/04 00:39:11;;;;;;;8.60;4.70;;;3.60;86.00;;;;;;5069249;28;20247;-68
2022/03/04 00:41:38;;;;;;;5.40;4.75;;;3.50;86.20;;;;;;5067997;28;20295;-69
2022/03/04 00:44:06;;;;;;;9.90;5.70;;;3.40;86.50;;;;;;5064132;28;20877;-67
2022/03/04 00:46:32;;;;;;;6.25;5.45;;;3.40;86.70;;;;;;5070189;28;20749;-69
2022/03/04 00:48:59;;;;;;;6.97;5.22;;;3.40;87.20;;;;;;5070051;28;20205;-69
2022/03/04 00:51:26;;;;;;;6.32;3.95;;;3.30;87.30;;;;;;5066298;28;20232;-69
2022/03/04 00:53:52;;;;;;;6.38;4.18;;;3.30;87.70;;;;;;5068402;28;20632;-67
2022/03/04 00:56:21;;;;;;;6.10;5.07;;;3.40;88.10;;;;;;5068544;28;20191;-69
2022/03/04 00:58:47;;;;;;;6.85;4.25;;;3.30;88.80;;;;;;5061231;28;20208;-70
2022/03/04 01:01:14;;;;;;;7.78;5.00;;;3.30;88.90;;;;;;5068429;28;20267;-69
2022/03/04 01:03:41;;;;;;;7.18;5.03;;;3.20;89.50;;;;;;5067779;28;20206;-69
2022/03/04 01:06:08;;;;;;;6.25;5.50;;;3.20;90.00;;;;;;5067844;28;20742;-69
2022/03/04 01:08:34;;;;;;;7.00;6.10;;;3.20;90.30;;;;;;5068209;28;20205;-69
2022/03/04 01:11:01;;;;;;;6.75;4.70;;;3.00;90.60;;;;;;5068204;28;20255;-67
2022/03/04 01:13:29;;;;;;;5.70;4.95;;;3.00;90.70;;;;;;5067684;28;20203;-68
2022/03/04 01:15:56;;;;;;;6.38;5.70;;;3.00;90.90;;;;;;5066408;28;20264;-69
2022/03/04 01:18:23;;;;;;;31.70;28.40;;;3.00;91.20;;;;;;5069654;28;20584;-68
2022/03/04 01:20:50;;;;;;;7.85;4.43;;;3.00;91.40;;;;;;5069715;28;20198;-70
2022/03/04 01:23:16;;;;;;;5.70;3.88;;;3.00;91.60;;;;;;5069609;28;20212;-67
2022/03/04 01:25:43;;;;;;;4.35;3.60;;;2.90;91.40;;;;;;5061355;28;20374;-67
2022/03/04 01:28:10;;;;;;;4.63;3.50;;;3.00;91.60;;;;;;5068709;28;20698;-68
2022/03/04 01:30:38;;;;;;;6.80;3.63;;;3.10;91.50;;;;;;5064576;28;20228;-68
2022/03/04 01:33:04;;;;;;;5.30;4.40;;;3.10;91.40;;;;;;5058316;28;20275;-69
2022/03/04 01:35:31;;;;;;;7.03;5.47;;;3.10;91.60;;;;;;5061786;28;20202;-68
2022/03/04 01:37:58;;;;;;;6.90;4.75;;;3.10;91.70;;;;;;5064525;28;20202;-69
2022/03/04 01:40:24;;;;;;;5.60;4.55;;;3.10;92.10;;;;;;5068226;28;20880;-67
2022/03/04 01:42:51;;;;;;;6.00;4.97;;;3.00;92.30;;;;;;5068308;28;20793;-69
2022/03/04 01:45:18;;;;;;;7.63;5.68;;;3.00;92.50;;;;;;5068836;28;20224;-67
2022/03/04 01:47:46;;;;;;;8.85;4.28;;;3.00;92.50;;;;;;5064306;28;20212;-69
2022/03/04 01:50:13;;;;;;;8.93;5.15;;;3.00;92.60;;;;;;5066498;28;20965;-68
2022/03/04 01:52:39;;;;;;;8.27;4.35;;;3.00;92.60;;;;;;5059598;28;20362;-70
2022/03/04 01:55:08;;;;;;;6.75;5.00;;;3.00;92.50;;;;;;5067531;28;20289;-68
2022/03/04 01:57:35;;;;;;;4.65;3.75;;;3.00;92.80;;;;;;5058741;28;20513;-68
2022/03/04 02:00:01;;;;;;;8.20;5.20;;;3.00;93.00;;;;;;5068281;28;20201;-68
2022/03/04 02:02:28;;;;;;;6.93;4.57;;;2.90;93.00;;;;;;5067670;28;20239;-67
2022/03/04 02:04:56;;;;;;;8.38;6.45;;;2.80;93.30;;;;;;5067306;28;20235;-68
2022/03/04 02:07:23;;;;;;;7.45;5.95;;;2.80;93.40;;;;;;5064629;28;20295;-68
2022/03/04 02:09:49;;;;;;;6.15;4.75;;;2.70;93.70;;;;;;5067279;28;20206;-68
2022/03/04 02:12:16;;;;;;;4.93;4.43;;;2.70;93.90;;;;;;5066896;28;20228;-67
2022/03/04 02:14:43;;;;;;;5.65;4.55;;;2.70;94.20;;;;;;5068195;28;20201;-68
2022/03/04 02:17:09;;;;;;;9.23;4.60;;;2.70;94.50;;;;;;5058158;28;20201;-68
2022/03/04 02:19:36;;;;;;;10.68;5.72;;;2.70;94.70;;;;;;5066316;28;20212;-68
2022/03/04 02:22:07;;;;;;;9.02;5.32;;;2.70;94.90;;;;;;5059293;28;20278;-67
2022/03/04 02:24:34;;;;;;;6.25;4.22;;;2.70;95.60;;;;;;5067174;28;20214;-68
2022/03/04 02:27:03;;;;;;;7.13;4.03;;;2.60;95.80;;;;;;5069290;28;20225;-66
2022/03/04 02:29:34;;;;;;;7.30;6.10;;;2.50;96.80;;;;;;5066478;28;20250;-68
2022/03/04 02:32:01;;;;;;;5.22;4.72;;;2.40;97.50;;;;;;5062256;28;20227;-66
2022/03/04 02:34:28;;;;;;;6.43;5.10;;;2.40;98.40;;;;;;5066750;28;20229;-68
2022/03/04 02:36:55;;;;;;;7.60;3.85;;;2.30;99.20;;;;;;5067819;28;20250;-68
2022/03/04 02:39:23;;;;;;;5.93;4.60;;;2.30;99.90;;;;;;5073276;28;20208;-68
2022/03/04 02:41:49;;;;;;;6.60;5.20;;;2.20;99.90;;;;;;5063674;28;20221;-67
2022/03/04 02:44:16;;;;;;;7.50;4.32;;;2.20;99.90;;;;;;5065147;28;20212;-69
2022/03/04 02:46:43;;;;;;;8.68;5.68;;;2.20;99.90;;;;;;5068350;28;20247;-69
2022/03/04 02:49:11;;;;;;;4.78;3.85;;;2.10;99.90;;;;;;5069936;28;20201;-69
2022/03/04 02:51:39;;;;;;;7.90;5.40;;;2.10;99.90;;;;;;5067220;28;20727;-70
2022/03/04 02:54:06;;;;;;;4.75;4.18;;;2.00;99.90;;;;;;5075257;28;20204;-69
2022/03/04 02:56:34;;;;;;;5.35;4.80;;;1.90;99.90;;;;;;5068000;28;20209;-69
2022/03/04 02:59:02;;;;;;;10.13;6.55;;;1.90;99.90;;;;;;5054639;28;20201;-69
2022/03/04 03:01:28;;;;;;;6.95;5.20;;;1.90;99.90;;;;;;5062167;28;20804;-70
2022/03/04 03:03:55;;;;;;;5.82;4.60;;;2.00;99.90;;;;;;5074916;28;20201;-68
2022/03/04 03:06:22;;;;;;;4.90;4.40;;;2.00;99.90;;;;;;5069147;28;20228;-67
2022/03/04 03:08:48;;;;;;;9.30;6.03;;;2.00;99.90;;;;;;5062317;28;20866;-69
2022/03/04 03:11:15;;;;;;;5.50;5.00;;;2.00;99.90;;;;;;5067477;28;20249;-68
2022/03/04 03:13:43;;;;;;;6.68;4.57;;;1.90;99.90;;;;;;5069177;28;20275;-67
2022/03/04 03:16:10;;;;;;;7.45;5.10;;;1.90;99.90;;;;;;5063121;28;20216;-67
2022/03/04 03:18:36;;;;;;;5.93;5.05;;;1.80;99.90;;;;;;5065005;28;20208;-68
2022/03/04 03:21:03;;;;;;;9.43;7.13;;;1.80;99.90;;;;;;5064630;28;20205;-68
2022/03/04 03:23:30;;;;;;;5.97;5.20;;;1.70;99.90;;;;;;5070181;28;20291;-69
2022/03/04 03:25:57;;;;;;;6.60;5.38;;;1.90;99.90;;;;;;5065069;28;20275;-69
2022/03/04 03:28:23;;;;;;;5.80;5.20;;;1.90;99.90;;;;;;5070935;28;20212;-69
2022/03/04 03:30:52;;;;;;;7.85;5.65;;;1.90;99.90;;;;;;5069311;28;20225;-70
2022/03/04 03:33:18;;;;;;;7.85;5.47;;;2.00;99.90;;;;;;5083518;28;20836;-69
2022/03/04 03:35:45;;;;;;;19.83;7.07;;;1.90;99.90;;;;;;5070422;28;20724;-69
2022/03/04 03:38:12;;;;;;;7.68;4.90;;;1.80;99.90;;;;;;5076298;28;20208;-69
2022/03/04 03:40:38;;;;;;;11.85;5.25;;;1.90;99.90;;;;;;5068254;28;20233;-69
2022/03/04 03:43:05;;;;;;;5.75;5.18;;;1.90;99.90;;;;;;5070152;28;20243;-69
2022/03/04 03:45:31;;;;;;;8.43;4.38;;;2.00;99.90;;;;;;5069768;28;20220;-70
2022/03/04 03:47:59;;;;;;;6.55;4.55;;;2.00;99.90;;;;;;5070936;28;20208;-69
2022/03/04 03:50:26;;;;;;;5.30;4.05;;;2.00;99.90;;;;;;5069770;28;20658;-68
2022/03/04 03:52:53;;;;;;;5.55;5.05;;;2.10;99.90;;;;;;5072377;28;20352;-67
2022/03/04 03:55:20;;;;;;;7.25;4.63;;;2.10;99.90;;;;;;5071167;28;20207;-70
2022/03/04 03:57:47;;;;;;;7.18;5.30;;;2.10;99.90;;;;;;5059302;28;20208;-68
2022/03/04 04:00:14;;;;;;;5.85;4.75;;;2.00;99.90;;;;;;5063554;28;20903;-68
2022/03/04 04:02:41;;;;;;;6.32;4.40;;;2.00;99.90;;;;;;5069614;28;20289;-70
2022/03/04 04:05:11;;;;;;;7.00;5.53;;;2.00;99.90;;;;;;5071165;28;20201;-69
2022/03/04 04:07:38;;;;;;;6.18;4.60;;;2.00;99.90;;;;;;5070029;28;20216;-67
2022/03/04 04:10:06;;;;;;;8.70;7.80;;;2.00;99.90;;;;;;5069885;28;20201;-69
2022/03/04 04:12:32;;;;;;;7.93;4.97;;;1.90;99.90;;;;;;5068810;28;20293;-67
2022/03/04 04:14:59;;;;;;;8.68;5.90;;;1.80;99.90;;;;;;5066454;28;20259;-69
2022/03/04 04:17:26;;;;;;;7.68;4.75;;;1.80;99.90;;;;;;5062519;28;20214;-69
2022/03/04 04:19:53;;;;;;;7.40;5.53;;;1.80;99.90;;;;;;5065595;28;20213;-69
2022/03/04 04:22:21;;;;;;;8.25;4.85;;;1.60;99.90;;;;;;5059437;28;20311;-67
2022/03/04 04:24:47;;;;;;;8.20;5.75;;;1.60;99.90;;;;;;5069296;28;20203;-68
2022/03/04 04:27:14;;;;;;;6.18;5.25;;;1.60;99.90;;;;;;5066479;28;20335;-67
2022/03/04 04:29:41;;;;;;;8.43;4.63;;;1.60;99.90;;;;;;5069037;28;20662;-70
2022/03/04 04:32:09;;;;;;;7.25;5.30;;;1.60;99.90;;;;;;5068486;28;20274;-68
2022/03/04 04:34:36;;;;;;;9.48;3.65;;;1.60;99.90;;;;;;5067229;28;20261;-69
2022/03/04 04:37:03;;;;;;;9.00;5.60;;;1.70;99.90;;;;;;5068609;28;20204;-68
2022/03/04 04:39:31;;;;;;;5.70;4.40;;;1.70;99.90;;;;;;5065763;28;20260;-69
2022/03/04 04:41:57;;;;;;;5.32;4.18;;;1.70;99.90;;;;;;5068986;28;20219;-67
2022/03/04 04:44:24;;;;;;;4.80;4.45;;;1.70;99.90;;;;;;5067554;28;20205;-67
2022/03/04 04:46:51;;;;;;;6.63;4.78;;;1.80;99.90;;;;;;5069407;28;20224;-69
2022/03/04 04:49:18;;;;;;;7.28;5.65;;;1.80;99.90;;;;;;5069216;28;20206;-69
2022/03/04 04:51:44;;;;;;;11.68;4.80;;;1.70;99.90;;;;;;5081797;22;20220;-69
2022/03/04 04:54:11;;;;;;;6.72;6.03;;;1.70;99.90;;;;;;5039093;28;20263;-70
2022/03/04 04:56:39;;;;;;;5.80;4.03;;;1.70;99.90;;;;;;5047724;28;20208;-69
2022/03/04 04:59:06;;;;;;;5.13;4.57;;;1.60;99.90;;;;;;5041981;28;20267;-70
2022/03/04 05:01:32;;;;;;;7.55;4.57;;;1.60;99.90;;;;;;5040815;28;20206;-69
2022/03/04 05:03:59;;;;;;;6.70;5.32;;;1.60;99.90;;;;;;5044990;28;20200;-71
2022/03/04 05:06:26;;;;;;;6.35;3.35;;;1.70;99.90;;;;;;5049727;28;20263;-68
2022/03/04 05:08:52;;;;;;;7.22;4.80;;;1.60;99.90;;;;;;5039716;28;20267;-69
2022/03/04 05:11:19;;;;;;;6.15;4.85;;;1.60;99.90;;;;;;5046131;28;20243;-69
2022/03/04 05:13:48;;;;;;;6.70;5.00;;;1.60;99.90;;;;;;5047332;28;20601;-70
2022/03/04 05:16:14;;;;;;;8.27;4.18;;;1.60;99.90;;;;;;5048534;28;20852;-70
2022/03/04 05:18:41;;;;;;;6.65;4.93;;;1.50;99.90;;;;;;5049064;28;20206;-69
2022/03/04 05:21:08;;;;;;;5.90;4.50;;;1.50;99.90;;;;;;5046891;28;20201;-70
2022/03/04 05:26:19;;;;;;;4.80;4.35;;;1.50;99.90;;;;;;5048196;28;20687;-71
2022/03/04 05:28:47;;;;;;;6.38;4.00;;;1.50;99.90;;;;;;5043674;28;20211;-68
2022/03/04 05:31:14;;;;;;;5.40;4.28;;;1.40;99.90;;;;;;5042386;28;20217;-70
2022/03/04 05:33:40;;;;;;;9.25;5.57;;;1.40;99.90;;;;;;5043677;28;20216;-69
2022/03/04 05:36:07;;;;;;;5.75;5.20;;;1.50;99.90;;;;;;5048396;28;20252;-69
2022/03/04 05:38:33;;;;;;;6.88;5.13;;;1.40;99.90;;;;;;5047025;28;20244;-69
2022/03/04 05:41:00;;;;;;;14.05;5.32;;;1.40;99.90;;;;;;5048438;28;20250;-71
2022/03/04 05:43:27;;;;;;;7.15;4.38;;;1.50;99.90;;;;;;5046970;28;20278;-71
2022/03/04 05:45:55;;;;;;;6.07;4.53;;;1.50;99.90;;;;;;5045961;28;20671;-72
2022/03/04 05:48:22;;;;;;;6.38;4.90;;;1.50;99.90;;;;;;5045830;28;20211;-71
2022/03/04 05:50:48;;;;;;;12.18;4.65;;;1.50;99.90;;;;;;5043033;28;20216;-70
2022/03/04 05:53:15;;;;;;;5.82;5.22;;;1.50;99.90;;;;;;5047807;28;20266;-69
2022/03/04 05:55:42;;;;;;;6.47;3.78;;;1.40;99.90;;;;;;5048094;28;20247;-70
2022/03/04 05:58:08;;;;;;;6.90;5.18;;;1.40;99.90;;;;;;5047302;28;20781;-69
2022/03/04 06:00:35;;;;;;;6.90;5.25;;;1.40;99.90;;;;;;5047511;28;20673;-69
2022/03/04 06:03:03;;;;;;;5.85;4.68;;;1.30;99.90;;;;;;5046983;28;20232;-70
2022/03/04 06:05:30;;;;;;;4.70;4.20;;;1.30;99.90;;;;;;5047232;28;20580;-70
2022/03/04 06:07:57;;;;;;;6.68;5.68;;;1.30;99.90;;;;;;5048020;28;20705;-72
2022/03/04 06:10:24;;;;;;;7.07;4.18;;;1.30;99.90;;;;;;5048813;28;20697;-71
2022/03/04 06:12:50;;;;;;;9.60;4.13;;;1.30;99.90;;;;;;5047441;28;20276;-72
2022/03/04 06:15:17;;;;;;;6.82;6.13;;;1.20;99.90;;;;;;5047474;28;20209;-70
2022/03/04 06:17:47;;;;;;;5.93;3.92;;;1.20;99.90;;;;;;5042855;28;20199;-71
2022/03/04 06:20:16;;;;;;;6.80;6.03;;;1.20;99.90;;;;;;5047558;28;20288;-71
2022/03/04 06:22:43;;;;;;;5.78;4.78;;;1.20;99.90;;;;;;5046732;28;20232;-70
2022/03/04 06:25:10;;;;;;;6.80;5.28;;;1.20;99.90;;;;;;5046959;28;20206;-70
2022/03/04 06:27:37;;;;;;;6.70;4.82;;;1.20;99.90;;;;;;5047165;28;20764;-69
2022/03/04 06:30:05;;;;;;;7.32;4.32;;;1.20;99.90;;;;;;5047570;28;20272;-68
2022/03/04 06:32:31;;;;;;;6.72;4.45;;;1.20;99.90;;;;;;5040694;28;20222;-69
2022/03/04 06:34:58;;;;;;;7.38;5.28;;;1.20;99.90;;;;;;5047213;28;20202;-71
2022/03/04 06:37:26;;;;;;;6.35;4.75;;;1.20;99.90;;;;;;5043902;28;20195;-71
2022/03/04 06:39:53;;;;;;;7.15;6.00;;;1.20;99.90;;;;;;5048408;28;20204;-70
2022/03/04 06:42:19;;;;;;;9.60;6.40;;;1.10;99.90;;;;;;5042707;28;20226;-69
2022/03/04 06:44:46;;;;;;;5.90;3.88;;;1.20;99.90;;;;;;5046856;28;20235;-71
2022/03/04 06:47:13;;;;;;;5.35;4.75;;;1.20;99.90;;;;;;5044165;28;20274;-71
2022/03/04 06:49:39;;;;;;;8.50;6.38;;;1.10;99.90;;;;;;5039860;28;20212;-71
2022/03/04 06:52:06;;;;;;;6.45;5.10;;;1.20;99.90;;;;;;5046824;28;20236;-69
2022/03/04 06:54:37;;;;;;;6.97;5.20;;;1.20;99.90;;;;;;5048840;28;20205;-70
2022/03/04 06:57:04;;;;;;;8.48;4.55;;;1.20;99.90;;;;;;5048040;28;20304;-71
2022/03/04 06:59:31;;;;;;;6.25;3.97;;;1.30;99.90;;;;;;5047500;28;20205;-69
2022/03/04 07:01:58;;;;;;;12.40;6.13;;;1.40;99.90;;;;;;5046252;28;20215;-69
2022/03/04 07:04:25;;;;;;;8.65;5.28;;;1.40;99.90;;;;;;5047805;28;20697;-71
2022/03/04 07:06:52;;;;;;;6.65;6.00;;;1.40;99.90;;;;;;5050714;28;20215;-69
2022/03/04 07:09:18;;;;;;;9.05;6.40;;;1.40;99.90;;;;;;5058102;28;20212;-69
2022/03/04 07:11:46;;;;;;;7.40;5.00;;;1.50;99.90;;;;;;5047862;28;20333;-69
2022/03/04 07:14:13;;;;;;;6.95;6.25;;;1.50;99.90;;;;;;5051167;28;20261;-69
2022/03/04 07:16:39;;;;;;;7.40;5.15;;;1.60;99.90;;;;;;5046667;28;20204;-69
2022/03/04 07:19:07;;;;;;;6.13;5.05;;;1.60;99.90;;;;;;5048886;28;20200;-69
2022/03/04 07:21:33;;;;;;;9.80;5.85;;;1.70;99.90;;;;;;5050757;28;20208;-69
2022/03/04 07:24:00;;;;;;;5.95;5.45;;;1.80;99.90;;;;;;5043919;28;20220;-69
2022/03/04 07:26:27;;;;;;;8.77;4.75;;;1.90;99.90;;;;;;5039763;28;20294;-71
2022/03/04 07:28:55;;;;;;;11.45;5.75;;;2.00;99.90;;;;;;5050211;28;20214;-72
2022/03/04 07:31:21;;;;;;;10.02;6.57;;;2.10;99.90;;;;;;5044903;28;20208;-71
2022/03/04 07:33:48;;;;;;;8.57;6.15;;;2.20;99.90;;;;;;5046246;28;20255;-70
2022/03/04 07:36:15;;;;;;;11.45;7.18;;;2.20;99.90;;;;;;5048968;28;20267;-69
2022/03/04 07:38:43;;;;;;;11.00;6.22;;;2.30;99.90;;;;;;5047138;28;20193;-71
2022/03/04 07:41:10;;;;;;;8.43;6.40;;;2.40;99.90;;;;;;5049322;28;20320;-72
2022/03/04 07:43:37;;;;;;;5.60;4.90;;;2.60;99.90;;;;;;5047684;28;20577;-70
2022/03/04 07:46:05;;;;;;;9.48;6.07;;;2.70;99.90;;;;;;5050224;28;20826;-71
2022/03/04 07:48:32;;;;;;;7.68;4.78;;;2.80;99.90;;;;;;5051345;28;20225;-68
2022/03/04 07:50:58;;;;;;;11.02;5.60;;;2.90;99.90;;;;;;5046214;28;20210;-72
2022/03/04 07:53:25;;;;;;;5.88;5.07;;;3.00;99.90;;;;;;5048286;28;20703;-71
2022/03/04 07:55:52;;;;;;;9.93;5.85;;;3.10;99.90;;;;;;5049826;28;20200;-69
2022/03/04 07:58:18;;;;;;;7.68;6.88;;;3.30;99.90;;;;;;5048623;28;20252;-71
2022/03/04 08:00:45;;;;;;;10.40;7.10;;;3.40;99.90;;;;;;5048425;28;20280;-69
2022/03/04 08:03:13;;;;;;;8.10;5.07;;;3.50;99.90;;;;;;5050466;28;20251;-69
2022/03/04 08:05:40;;;;;;;8.00;5.70;;;3.60;99.90;;;;;;5048961;28;20580;-67
2022/03/04 08:08:07;;;;;;;5.70;4.95;;;3.70;99.90;;;;;;5045373;28;20225;-69
2022/03/04 08:10:34;;;;;;;7.15;5.20;;;3.80;99.90;;;;;;5039260;28;20735;-67
2022/03/04 08:13:00;;;;;;;7.22;5.68;;;4.00;99.90;;;;;;5044125;28;20260;-71
2022/03/04 08:15:27;;;;;;;6.75;5.28;;;4.10;99.90;;;;;;5049190;28;20202;-72
2022/03/04 08:17:54;;;;;;;8.82;6.43;;;4.30;99.90;;;;;;5048798;28;20202;-69
2022/03/04 08:20:22;;;;;;;8.85;6.18;;;4.40;99.90;;;;;;5049032;28;20672;-70
2022/03/04 08:22:49;;;;;;;7.13;6.32;;;4.60;99.90;;;;;;5040687;28;20323;-70
2022/03/04 08:25:15;;;;;;;6.28;5.45;;;4.70;99.90;;;;;;5044352;28;20805;-72
2022/03/04 08:27:42;;;;;;;6.00;5.10;;;5.00;99.90;;;;;;5043850;28;20265;-73
2022/03/04 08:30:11;;;;;;;8.60;6.20;;;5.20;99.90;;;;;;5048368;28;20198;-71
2022/03/04 08:32:39;;;;;;;9.02;6.10;;;5.20;99.90;;;;;;5050112;28;20227;-71
2022/03/04 08:35:06;;;;;;;8.88;5.97;;;5.40;99.90;;;;;;5049193;28;20198;-71
2022/03/04 08:37:34;;;;;;;10.32;6.63;;;5.40;99.90;;;;;;5049737;28;20202;-71
2022/03/04 08:40:01;;;;;;;7.53;6.65;;;5.40;99.90;;;;;;5048815;28;20205;-71
2022/03/04 08:42:28;;;;;;;7.90;5.57;;;5.50;99.90;;;;;;5045818;28;20233;-71
2022/03/04 08:44:55;;;;;;;12.60;7.57;;;5.60;99.90;;;;;;5047166;28;20206;-71
2022/03/04 08:47:22;;;;;;;8.38;6.70;;;5.60;99.90;;;;;;5049559;28;20230;-71
2022/03/04 08:49:49;;;;;;;9.43;7.70;;;5.70;99.90;;;;;;5050185;28;20205;-73
2022/03/04 08:52:15;;;;;;;9.95;7.13;;;5.90;99.90;;;;;;5048868;28;20326;-72
2022/03/04 08:54:44;;;;;;;8.52;7.47;;;6.10;99.90;;;;;;5044472;28;20639;-72
2022/03/04 08:57:10;;;;;;;8.45;6.45;;;6.30;99.90;;;;;;5049200;28;20614;-71
2022/03/04 08:59:38;;;;;;;9.65;7.38;;;6.50;99.90;;;;;;5049715;28;20197;-71
2022/03/04 09:02:05;;;;;;;11.38;7.15;;;6.80;99.90;;;;;;5049694;28;20222;-73
2022/03/04 09:04:32;;;;;;;8.13;7.32;;;6.90;99.90;;;;;;5048669;28;20619;-70
2022/03/04 09:06:59;;;;;;;11.38;7.75;;;7.00;99.90;;;;;;5049354;28;20208;-73
2022/03/04 09:09:25;;;;;;;9.10;6.22;;;7.10;99.90;;;;;;5048654;28;20282;-74
2022/03/04 09:11:53;;;;;;;13.07;7.78;;;7.20;99.90;;;;;;5047925;28;20205;-73
2022/03/04 09:14:23;;;;;;;8.82;7.57;;;7.10;99.90;;;;;;5046525;28;20213;-72
2022/03/04 09:16:50;;;;;;;8.82;7.93;;;7.20;99.90;;;;;;5043935;28;20198;-71
2022/03/04 09:19:16;;;;;;;11.15;8.55;;;7.40;99.90;;;;;;5049034;28;20690;-70
2022/03/04 09:21:43;;;;;;;10.73;7.40;;;7.60;99.90;;;;;;5049128;28;20202;-70
2022/03/04 09:24:10;;;;;;;8.30;6.97;;;7.80;99.90;;;;;;5047441;28;20236;-70
2022/03/04 09:26:36;;;;;;;11.85;7.65;;;7.90;99.90;;;;;;5047831;28;20194;-72
2022/03/04 09:29:04;;;;;;;9.20;7.47;;;7.90;99.90;;;;;;5043015;28;20294;-71
2022/03/04 09:31:31;;;;;;;9.95;7.55;;;8.10;99.90;;;;;;5046162;28;20248;-72
2022/03/04 09:33:58;;;;;;;12.30;8.80;;;8.40;99.90;;;;;;5043929;28;20217;-71
2022/03/04 09:36:24;;;;;;;10.45;8.05;;;8.50;99.90;;;;;;5047964;28;20247;-71
2022/03/04 09:38:51;;;;;;;10.45;8.25;;;8.60;99.90;;;;;;5048079;28;20245;-72
2022/03/04 09:41:19;;;;;;;11.23;8.50;;;8.60;99.90;;;;;;5047855;28;20205;-71
2022/03/04 09:43:47;;;;;;;15.77;7.93;;;8.80;99.90;;;;;;5046194;28;20214;-73
2022/03/04 09:46:15;;;;;;;11.18;8.13;;;9.00;99.90;;;;;;5045641;28;20206;-67
2022/03/04 09:48:43;;;;;;;12.75;9.18;;;9.10;99.90;;;;;;5048522;28;20222;-70
2022/03/04 09:51:11;;;;;;;9.97;8.53;;;9.20;99.70;;;;;;5046605;28;20202;-70
2022/03/04 09:53:38;;;;;;;14.73;8.23;;;9.20;98.90;;;;;;5038739;28;20490;-69
2022/03/04 09:56:05;;;;;;;11.23;6.93;;;9.20;99.30;;;;;;5049215;28;20197;-62
2022/03/04 09:58:32;;;;;;;13.50;8.05;;;9.30;99.20;;;;;;5051807;28;20470;-61
2022/03/04 10:00:59;;;;;;;11.47;8.40;;;9.70;99.90;;;;;;5066222;28;20233;-71
2022/03/04 10:03:46;;;;;;;12.70;9.97;;;10.00;98.10;;;;;;5051365;28;21178;-70
2022/03/04 10:06:13;;;;;;;9.73;8.00;;;9.80;97.70;;;;;;5045538;28;20473;-68
2022/03/04 10:08:41;;;;;;;12.23;10.10;;;9.60;97.50;;;;;;5041495;28;20481;-68
2022/03/04 10:11:08;;;;;;;11.10;9.10;;;9.70;98.10;;;;;;5047209;28;20510;-69
2022/03/04 10:13:46;;;;;;;11.00;9.00;;;9.70;97.10;;;;;;5049507;28;20456;-69
2022/03/04 10:16:15;;;;;;;13.90;9.40;;;9.70;96.80;;;;;;5047115;28;20455;-68
2022/03/04 10:18:41;;;;;;;12.57;8.77;;;9.70;96.90;;;;;;5049116;28;20468;-69
2022/03/04 10:21:10;;;;;;;10.50;8.70;;;9.70;96.40;;;;;;5048660;28;20475;-69
2022/03/04 10:23:37;;;;;;;14.80;9.20;;;9.80;96.60;;;;;;5048856;28;20484;-70
2022/03/04 10:26:03;;;;;;;10.53;8.37;;;9.90;96.30;;;;;;5048637;28;20452;-69
2022/03/04 10:28:32;;;;;;;13.70;10.40;;;10.10;96.20;;;;;;5049763;28;20541;-69
2022/03/04 10:30:59;;;;;;;11.30;8.83;;;10.30;96.00;;;;;;5051702;28;20451;-69
2022/03/04 10:33:27;;;;;;;11.43;9.93;;;10.40;95.40;;;;;;5050232;28;20506;-69
2022/03/04 10:36:10;;;;;;;12.70;9.67;;;10.70;95.40;;;;;;5053254;28;20449;-69
2022/03/04 10:38:38;;;;;;;10.90;7.93;;;10.90;94.90;;;;;;5053883;28;21014;-69
2022/03/04 10:41:22;;;;;;;10.83;8.47;;;11.00;94.40;;;;;;5054239;28;20448;-69
2022/03/04 10:43:51;;;;;;;10.90;8.37;;;11.00;94.30;;;;;;5049456;28;20480;-64
2022/03/04 10:46:18;;;;;;;14.57;8.30;;;11.10;95.50;;;;;;5052250;28;20849;-62
2022/03/04 10:48:52;;;;;;;19.47;9.47;;;11.30;94.90;;;;;;5051338;28;20480;-64
2022/03/04 10:51:34;;;;;;;11.47;9.77;;;11.60;94.60;;;;;;5052447;28;20448;-62
2022/03/04 10:54:14;;;;;;;10.80;8.00;;;11.90;95.20;;;;;;5050642;28;20532;-63
2022/03/04 10:56:52;;;;;;;12.10;9.40;;;12.00;93.20;;;;;;5051744;28;20439;-64
2022/03/04 10:59:19;;;;;;;14.80;10.07;;;11.80;92.70;;;;;;5052936;28;20444;-64
2022/03/04 11:01:48;;;;;;;13.90;10.10;;;11.90;92.70;;;;;;5050786;28;20974;-63
2022/03/04 11:04:17;;;;;;;13.17;9.30;;;12.10;92.90;;;;;;5052122;28;20448;-65
2022/03/04 11:06:46;;;;;;;9.80;8.80;;;12.30;92.30;;;;;;5053423;28;20539;-62
2022/03/04 11:09:14;;;;;;;10.53;9.30;;;12.50;92.40;;;;;;5052193;28;20484;-64
2022/03/04 11:11:43;;;;;;;10.10;9.10;;;12.60;92.10;;;;;;5049534;28;20509;-64
2022/03/04 11:14:11;;;;;;;11.10;8.80;;;12.70;92.50;;;;;;5047847;28;20550;-64
2022/03/04 11:16:38;;;;;;;14.40;9.67;;;12.90;91.60;;;;;;5051692;28;20448;-64
2022/03/04 11:19:05;;;;;;;11.03;9.80;;;12.80;91.70;;;;;;5053180;28;20452;-63
2022/03/04 11:21:32;;;;;;;12.60;8.90;;;12.90;91.40;;;;;;5050419;28;20456;-64
2022/03/04 11:24:02;;;;;;;12.70;8.40;;;13.20;90.80;;;;;;5052498;22;20986;-66
2022/03/04 11:26:30;;;;;;;12.50;9.50;;;13.40;91.00;;;;;;5022875;28;20570;-67
2022/03/04 11:28:59;;;;;;;14.50;10.67;;;13.40;89.40;;;;;;5025936;28;20978;-66
2022/03/04 11:31:27;;;;;;;12.40;10.27;;;13.60;89.40;;;;;;5025952;28;20507;-65
2022/03/04 11:33:57;;;;;;;14.67;10.43;;;13.80;88.50;;;;;;5021452;28;20472;-69
2022/03/04 11:36:25;;;;;;;12.53;9.73;;;14.20;88.70;;;;;;5022219;28;21264;-68
2022/03/04 11:39:03;;;;;;;15.20;8.73;;;14.40;86.60;;;;;;5023568;28;20460;-69
2022/03/04 11:42:06;;;;;;;11.00;9.23;;;14.50;86.00;;;;;;5018459;28;20492;-68
2022/03/04 11:44:33;;;;;;;12.20;8.77;;;14.90;84.80;;;;;;5023754;28;20548;-69
2022/03/04 11:47:01;;;;;;;12.30;8.37;;;15.30;84.00;;;;;;5019039;28;20480;-68
2022/03/04 11:49:31;;;;;;;13.10;9.40;;;15.90;83.00;;;;;;5022903;28;20481;-70
2022/03/04 11:52:24;;;;;;;11.90;8.93;;;16.60;81.90;;;;;;5023996;28;20531;-69
2022/03/04 11:55:20;;;;;;;12.60;10.80;;;17.20;79.30;;;;;;5021191;28;20559;-68
2022/03/04 11:57:48;;;;;;;12.53;9.00;;;17.60;78.00;;;;;;5018170;28;20468;-68
2022/03/04 12:00:26;;;;;;;9.37;8.30;;;18.10;77.40;;;;;;5025559;28;20611;-69
2022/03/04 12:02:55;;;;;;;10.60;9.33;;;18.80;75.20;;;;;;5014911;28;20577;-73
2022/03/04 12:05:32;;;;;;;12.33;8.93;;;19.70;75.00;;;;;;5023448;28;20452;-72
2022/03/04 12:08:17;;;;;;;12.67;9.93;;;20.50;71.40;;;;;;5022650;28;20476;-73
2022/03/04 12:10:48;;;;;;;13.23;8.70;;;21.30;68.10;;;;;;5023824;28;20448;-72
2022/03/04 12:13:19;;;;;;;11.10;9.90;;;21.60;63.80;;;;;;5024231;28;20587;-72
2022/03/04 12:15:50;;;;;;;12.07;9.23;;;21.80;61.40;;;;;;5024525;28;20456;-72
2022/03/04 12:18:25;;;;;;;11.10;9.33;;;22.00;58.60;;;;;;5026479;28;20453;-71
2022/03/04 12:21:14;;;;;;;11.83;10.50;;;22.40;57.70;;;;;;5025627;28;20514;-73
2022/03/04 12:23:49;;;;;;;10.63;8.90;;;22.90;56.70;;;;;;5012927;28;20555;-73
2022/03/04 12:26:24;;;;;;;10.33;8.57;;;23.20;55.60;;;;;;5021191;28;20465;-73
2022/03/04 12:28:53;;;;;;;10.57;8.17;;;23.80;54.20;;;;;;5025621;28;20546;-73
2022/03/04 12:31:26;;;;;;;11.17;9.07;;;23.90;53.20;;;;;;5028290;28;20972;-73
2022/03/04 12:33:57;;;;;;;11.07;8.90;;;24.10;52.40;;;;;;5023947;28;20536;-71
2022/03/04 12:36:27;;;;;;;10.13;7.93;;;23.80;50.40;;;;;;5024302;28;21105;-74
2022/03/04 12:38:56;;;;;;;10.03;7.50;;;23.70;50.60;;;;;;5020513;28;20535;-72
2022/03/04 12:41:26;;;;;;;8.27;7.40;;;24.10;49.80;;;;;;5025330;28;20461;-74
2022/03/04 12:43:55;;;;;;;8.20;7.27;;;24.10;48.00;;;;;;5025357;28;20477;-72
2022/03/04 12:46:23;;;;;;;18.97;8.50;;;23.60;47.70;;;;;;5023698;28;20457;-72
2022/03/04 12:48:51;;;;;;;9.10;8.20;;;24.00;47.20;;;;;;5022914;28;20563;-72
2022/03/04 12:51:27;;;;;;;9.43;8.43;;;23.90;46.90;;;;;;5019792;28;20940;-73
2022/03/04 12:53:55;;;;;;;9.30;8.33;;;23.70;47.20;;;;;;5021820;28;20484;-71
2022/03/04 12:56:23;;;;;;;8.60;7.67;;;22.50;46.60;;;;;;5023366;28;20456;-73
2022/03/04 12:58:54;;;;;;;10.23;8.67;;;21.80;47.40;;;;;;5025188;28;20598;-72